Time;durP1;ratioP1;P1;durP2;ratioP2;P2;SDS_P1;SDS_P2;PMS_P1;PMS_P2;Temp;Humidity;BMP_temperature;BMP_pressure;BME280_temperature;BME280_humidity;BME280_pressure;Samples;Min_cycle;Max_cycle;Signal;HPM_P1;HPM_P2
2022/07/10 00:00:36;;;;;;;10.20;2.22;;;14.00;99.90;;;;;;5033836;28;20053;-92
2022/07/10 00:03:03;;;;;;;9.52;3.00;;;14.00;99.90;;;;;;5031694;28;20050;-92
2022/07/10 00:05:29;;;;;;;10.80;3.92;;;13.90;99.90;;;;;;5032756;28;20481;-93
2022/07/10 00:07:54;;;;;;;11.70;4.50;;;13.90;99.90;;;;;;5013081;28;20119;-92
2022/07/10 00:10:21;;;;;;;11.38;3.90;;;13.90;99.90;;;;;;5032175;28;20041;-92
2022/07/10 00:12:48;;;;;;;8.55;2.10;;;13.50;99.90;;;;;;5031583;28;20521;-92
2022/07/10 00:15:15;;;;;;;7.68;2.00;;;13.80;99.90;;;;;;5015578;28;20079;-92
2022/07/10 00:17:41;;;;;;;8.82;2.78;;;13.80;99.90;;;;;;5033865;28;20095;-91
2022/07/10 00:20:08;;;;;;;8.65;2.63;;;13.80;99.90;;;;;;5033622;28;20441;-93
2022/07/10 00:22:34;;;;;;;8.57;2.75;;;13.80;99.90;;;;;;5049133;28;20068;-92
2022/07/10 00:25:04;;;;;;;9.73;2.90;;;13.80;99.90;;;;;;5029759;28;20037;-91
2022/07/10 00:27:30;;;;;;;9.73;2.53;;;13.70;99.90;;;;;;5015828;28;20432;-91
2022/07/10 00:29:56;;;;;;;8.55;2.40;;;13.90;99.90;;;;;;5029671;28;20132;-92
2022/07/10 00:32:22;;;;;;;7.53;2.70;;;13.80;99.90;;;;;;5046804;28;20379;-92
2022/07/10 00:34:48;;;;;;;10.02;4.05;;;13.40;99.90;;;;;;5032982;28;20049;-91
2022/07/10 00:37:13;;;;;;;13.80;6.88;;;13.70;99.90;;;;;;5043087;28;20042;-93
2022/07/10 00:39:39;;;;;;;11.25;4.05;;;13.40;99.90;;;;;;5035668;28;20529;-93
2022/07/10 00:42:09;;;;;;;13.88;8.30;;;15.10;99.90;;;;;;5032307;28;20516;-93
2022/07/10 00:44:36;;;;;;;13.07;4.28;;;17.10;99.90;;;;;;5031808;28;20045;-93
2022/07/10 00:47:04;;;;;;;12.48;2.72;;;13.40;99.90;;;;;;5022454;28;20059;-92
2022/07/10 00:49:30;;;;;;;10.02;2.30;;;13.60;99.90;;;;;;5032232;28;20045;-92
2022/07/10 00:51:57;;;;;;;10.15;2.15;;;13.60;99.90;;;;;;5013593;28;20481;-92
2022/07/10 00:54:23;;;;;;;10.40;2.40;;;13.60;99.90;;;;;;5015110;28;20045;-93
2022/07/10 00:56:49;;;;;;;8.88;1.98;;;13.60;99.90;;;;;;5031275;28;20136;-92
2022/07/10 00:59:14;;;;;;;6.47;1.67;;;13.60;99.90;;;;;;5031705;28;20378;-92
2022/07/10 01:01:40;;;;;;;7.72;1.95;;;13.70;99.90;;;;;;5031694;28;20072;-93
2022/07/10 01:04:06;;;;;;;9.30;2.17;;;13.70;99.90;;;;;;5032397;28;20041;-92
2022/07/10 01:06:32;;;;;;;9.45;2.10;;;13.80;99.90;;;;;;5031895;28;20038;-93
2022/07/10 01:08:58;;;;;;;10.25;2.30;;;13.70;99.90;;;;;;5030551;28;20053;-92
2022/07/10 01:11:24;;;;;;;11.65;2.35;;;13.70;99.90;;;;;;5034249;28;20045;-92
2022/07/10 01:13:49;;;;;;;9.52;3.17;;;13.70;99.90;;;;;;5034271;28;20045;-92
2022/07/10 01:16:16;;;;;;;10.95;2.17;;;13.50;99.90;;;;;;5052480;28;20078;-93
2022/07/10 01:18:42;;;;;;;9.65;2.08;;;13.70;99.90;;;;;;5053850;28;20112;-92
2022/07/10 01:21:25;;;;;;;8.25;1.83;;;13.60;99.90;;;;;;5053747;28;20061;-93
2022/07/10 01:23:51;;;;;;;8.60;2.10;;;13.70;99.90;;;;;;5038838;28;20060;-92
2022/07/10 01:26:17;;;;;;;9.82;2.10;;;13.00;99.90;;;;;;5034391;28;20108;-92
2022/07/10 01:28:43;;;;;;;10.18;2.20;;;13.70;99.90;;;;;;5031408;28;20039;-93
2022/07/10 01:31:08;;;;;;;10.05;2.10;;;13.70;99.90;;;;;;5034447;28;20045;-92
2022/07/10 01:33:34;;;;;;;8.52;2.03;;;13.70;99.90;;;;;;5037373;28;20048;-92
2022/07/10 01:36:00;;;;;;;10.65;2.20;;;14.00;99.90;;;;;;5053370;28;20422;-91
2022/07/10 01:38:25;;;;;;;10.13;2.13;;;14.20;99.90;;;;;;5047898;28;20452;-93
2022/07/10 01:40:51;;;;;;;13.23;2.55;;;13.80;99.90;;;;;;5033502;28;20047;-92
2022/07/10 01:43:16;;;;;;;9.65;2.33;;;13.70;99.90;;;;;;5050698;28;20037;-93
2022/07/10 01:45:43;;;;;;;8.02;2.10;;;13.70;99.90;;;;;;5031352;28;20090;-91
2022/07/10 01:48:08;;;;;;;9.25;1.85;;;13.60;99.90;;;;;;5023868;28;20056;-92
2022/07/10 01:50:34;;;;;;;8.95;2.22;;;13.70;99.90;;;;;;5052559;28;20041;-91
2022/07/10 01:53:00;;;;;;;9.00;2.15;;;13.70;99.90;;;;;;5045023;28;20071;-91
2022/07/10 01:55:25;;;;;;;10.60;2.40;;;13.60;99.90;;;;;;5014486;28;20042;-93
2022/07/10 01:57:51;;;;;;;10.63;2.45;;;13.50;99.90;;;;;;5029846;28;20351;-91
2022/07/10 02:00:17;;;;;;;10.43;2.38;;;13.50;99.90;;;;;;5030161;28;20056;-92
2022/07/10 02:04:40;;;;;;;8.38;2.00;;;13.60;99.90;;;;;;5013737;28;20425;-92
2022/07/10 02:05:28;;;;;;;10.30;2.00;;;13.50;99.90;;;;;;5035700;28;20058;-91
2022/07/10 02:07:53;;;;;;;9.27;2.50;;;13.30;99.90;;;;;;5044309;28;20040;-90
2022/07/10 02:10:19;;;;;;;8.27;1.98;;;13.40;99.90;;;;;;5013986;28;20041;-91
2022/07/10 02:12:45;;;;;;;9.90;2.10;;;13.40;99.90;;;;;;5031416;28;20050;-92
2022/07/10 02:15:10;;;;;;;11.38;2.20;;;13.30;99.90;;;;;;5036303;28;20056;-92
2022/07/10 02:17:36;;;;;;;10.50;2.45;;;15.20;99.90;;;;;;5025666;28;20060;-92
2022/07/10 02:20:01;;;;;;;10.15;2.03;;;13.20;99.90;;;;;;5036899;28;20045;-92
2022/07/10 02:22:27;;;;;;;12.10;2.80;;;13.30;99.90;;;;;;5030093;28;20041;-92
2022/07/10 02:24:53;;;;;;;10.57;2.75;;;13.30;99.90;;;;;;5028617;28;20045;-90
2022/07/10 02:27:18;;;;;;;9.07;2.10;;;13.30;99.90;;;;;;5029760;28;20041;-90
2022/07/10 02:29:44;;;;;;;11.23;2.42;;;13.20;99.90;;;;;;5012917;28;20099;-91
2022/07/10 02:32:09;;;;;;;12.25;2.80;;;13.20;99.90;;;;;;5024386;28;20544;-91
2022/07/10 02:34:35;;;;;;;9.43;2.10;;;13.10;99.90;;;;;;5040072;28;20482;-91
2022/07/10 02:37:00;;;;;;;9.02;2.10;;;13.10;99.90;;;;;;5029316;28;20227;-91
2022/07/10 02:39:26;;;;;;;9.60;2.40;;;13.10;99.90;;;;;;5029268;28;20087;-91
2022/07/10 02:41:52;;;;;;;10.93;2.22;;;13.00;99.90;;;;;;5029541;28;20053;-91
2022/07/10 02:44:17;;;;;;;9.02;2.10;;;13.10;99.90;;;;;;5031700;28;20053;-91
2022/07/10 02:46:43;;;;;;;9.43;2.30;;;13.10;99.90;;;;;;5046613;28;20041;-91
2022/07/10 02:49:08;;;;;;;10.38;2.60;;;13.10;99.90;;;;;;5046960;28;20048;-91
2022/07/10 02:51:34;;;;;;;11.15;2.13;;;13.00;99.90;;;;;;5032249;28;20046;-90
2022/07/10 02:53:59;;;;;;;10.73;2.45;;;13.00;99.90;;;;;;5025851;28;20393;-91
2022/07/10 02:56:25;;;;;;;10.55;2.13;;;12.90;99.90;;;;;;5019564;28;20038;-92
2022/07/10 02:58:50;;;;;;;10.23;2.20;;;12.90;99.90;;;;;;5011688;28;20081;-91
2022/07/10 03:01:16;;;;;;;7.30;1.90;;;12.90;99.90;;;;;;5020837;28;20053;-92
2022/07/10 03:03:42;;;;;;;9.23;2.25;;;13.00;99.90;;;;;;5028897;28;20092;-91
2022/07/10 03:06:10;;;;;;;8.75;2.15;;;12.90;99.90;;;;;;5028657;28;20055;-91
2022/07/10 03:08:36;;;;;;;9.45;2.33;;;12.80;99.90;;;;;;5027902;28;20345;-91
2022/07/10 03:11:01;;;;;;;10.40;2.30;;;12.80;99.90;;;;;;5044420;28;20040;-91
2022/07/10 03:13:27;;;;;;;8.38;2.25;;;12.80;99.90;;;;;;5032630;28;20094;-92
2022/07/10 03:15:54;;;;;;;7.20;2.00;;;12.90;99.90;;;;;;5049753;28;20540;-90
2022/07/10 03:18:20;;;;;;;11.63;2.83;;;12.80;99.90;;;;;;5032408;28;20052;-91
2022/07/10 03:20:45;;;;;;;6.60;1.80;;;12.80;99.90;;;;;;5028136;28;20037;-89
2022/07/10 03:23:11;;;;;;;8.65;1.88;;;12.80;99.90;;;;;;5026904;28;20045;-91
2022/07/10 03:25:36;;;;;;;10.82;2.20;;;13.30;99.90;;;;;;5030270;28;20451;-89
2022/07/10 03:28:02;;;;;;;7.80;1.95;;;12.80;99.90;;;;;;5029216;28;20477;-91
2022/07/10 03:30:28;;;;;;;11.63;2.20;;;12.80;99.90;;;;;;5028597;28;20132;-91
2022/07/10 03:32:53;;;;;;;8.85;1.88;;;12.80;99.90;;;;;;5035213;28;20048;-91
2022/07/10 03:35:19;;;;;;;10.52;2.65;;;12.90;99.90;;;;;;5033766;28;20120;-91
2022/07/10 03:37:45;;;;;;;7.50;1.90;;;12.80;99.90;;;;;;5035665;28;20095;-91
2022/07/10 03:40:11;;;;;;;9.80;2.20;;;12.70;99.90;;;;;;5033682;28;20038;-91
2022/07/10 03:42:36;;;;;;;10.68;2.03;;;13.50;99.90;;;;;;5032752;28;20044;-90
2022/07/10 03:45:02;;;;;;;10.20;2.10;;;13.00;99.90;;;;;;5031951;28;20308;-90
2022/07/10 03:47:28;;;;;;;8.00;1.88;;;12.90;99.90;;;;;;5032106;28;20056;-89
2022/07/10 03:49:53;;;;;;;9.85;2.67;;;13.00;99.90;;;;;;5030588;28;20041;-89
2022/07/10 03:52:19;;;;;;;8.48;2.00;;;13.00;99.90;;;;;;5046447;28;20390;-91
2022/07/10 03:54:44;;;;;;;8.23;1.95;;;13.90;99.90;;;;;;5041287;28;20469;-89
2022/07/10 03:59:54;;;;;;;11.05;2.35;;;13.10;99.90;;;;;;5031699;28;20085;-91
2022/07/10 04:02:20;;;;;;;7.70;2.00;;;;;;;;;;5031339;28;20084;-90
2022/07/10 04:04:46;;;;;;;10.68;1.95;;;;;;;;;;5016387;28;20179;-90
2022/07/10 04:07:12;;;;;;;7.63;1.98;;;13.10;99.90;;;;;;5032293;28;20087;-91
2022/07/10 04:09:38;;;;;;;7.80;1.80;;;13.30;99.90;;;;;;5033972;28;20077;-92
2022/07/10 04:12:04;;;;;;;10.50;2.20;;;13.30;99.90;;;;;;5030127;28;20041;-91
2022/07/10 04:14:29;;;;;;;7.53;1.90;;;13.40;99.90;;;;;;5034082;28;20053;-91
2022/07/10 04:16:55;;;;;;;10.23;2.00;;;13.60;99.90;;;;;;5030300;28;20044;-91
2022/07/10 04:19:21;;;;;;;7.70;1.73;;;13.60;99.90;;;;;;5033245;28;20478;-90
2022/07/10 04:21:47;;;;;;;7.47;1.80;;;13.50;99.90;;;;;;5053351;28;20049;-88
2022/07/10 04:24:13;;;;;;;8.32;2.10;;;13.70;99.90;;;;;;5051721;28;20091;-91
2022/07/10 04:26:38;;;;;;;11.15;2.10;;;13.10;99.90;;;;;;5032033;28;20130;-89
2022/07/10 04:29:04;;;;;;;7.97;1.88;;;13.60;99.90;;;;;;5031551;28;20371;-91
2022/07/10 04:31:29;;;;;;;6.53;1.60;;;13.60;99.90;;;;;;5038146;28;20045;-92
2022/07/10 04:33:57;;;;;;;6.85;2.00;;;13.50;99.90;;;;;;5051364;28;20041;-91
2022/07/10 04:36:23;;;;;;;8.85;2.10;;;13.70;99.90;;;;;;5052956;28;20084;-90
2022/07/10 04:38:48;;;;;;;6.57;1.92;;;13.70;99.90;;;;;;5034760;28;20219;-90
2022/07/10 04:41:14;;;;;;;10.90;2.28;;;13.60;99.90;;;;;;5032333;28;20073;-91
2022/07/10 04:43:39;;;;;;;9.73;1.90;;;13.80;99.90;;;;;;5031174;28;20049;-91
2022/07/10 04:46:06;;;;;;;9.18;1.80;;;13.60;99.90;;;;;;5030172;28;20033;-92
2022/07/10 04:48:32;;;;;;;7.80;1.70;;;13.80;99.90;;;;;;5014834;28;20049;-91
2022/07/10 04:50:58;;;;;;;8.77;1.67;;;15.60;99.90;;;;;;5013915;28;20103;-90
2022/07/10 04:53:24;;;;;;;8.63;1.80;;;14.10;99.90;;;;;;5033278;28;20060;-90
2022/07/10 04:55:49;;;;;;;7.05;1.75;;;13.90;99.90;;;;;;5029417;28;20572;-89
2022/07/10 04:58:15;;;;;;;8.25;1.70;;;14.00;99.90;;;;;;5029887;28;20069;-92
2022/07/10 05:00:41;;;;;;;8.52;1.70;;;14.00;99.90;;;;;;5030974;28;20128;-91
2022/07/10 05:03:06;;;;;;;9.05;2.00;;;14.00;99.90;;;;;;5030566;28;20051;-89
2022/07/10 05:05:32;;;;;;;9.18;1.80;;;14.10;99.90;;;;;;5014022;28;20052;-87
2022/07/10 05:07:58;;;;;;;8.38;2.38;;;13.60;99.90;;;;;;5029636;28;20044;-87
2022/07/10 05:10:24;;;;;;;8.30;1.80;;;14.20;99.90;;;;;;5030198;28;20045;-89
2022/07/10 05:12:50;;;;;;;8.15;1.90;;;14.60;99.90;;;;;;5022753;28;20129;-90
2022/07/10 05:15:15;;;;;;;9.57;2.10;;;14.30;99.90;;;;;;5031557;28;20130;-88
2022/07/10 05:17:41;;;;;;;8.35;1.95;;;14.40;99.90;;;;;;5028360;28;20046;-88
2022/07/10 05:20:07;;;;;;;9.80;2.35;;;14.40;99.90;;;;;;5007325;28;20041;-87
2022/07/10 05:22:33;;;;;;;9.48;1.92;;;14.50;99.90;;;;;;5028206;28;20068;-89
2022/07/10 05:24:58;;;;;;;10.25;2.25;;;14.50;99.90;;;;;;5029104;28;20037;-88
2022/07/10 05:27:25;;;;;;;11.65;2.28;;;14.60;99.90;;;;;;5029328;28;20088;-89
2022/07/10 05:29:50;;;;;;;9.70;2.03;;;14.60;99.90;;;;;;5030189;28;20041;-85
2022/07/10 05:32:16;;;;;;;9.70;2.22;;;14.20;99.90;;;;;;5030979;28;20506;-88
2022/07/10 05:34:42;;;;;;;11.13;2.25;;;14.60;99.90;;;;;;5029288;28;20037;-89
2022/07/10 05:37:07;;;;;;;8.55;2.53;;;14.50;99.90;;;;;;5027944;28;20069;-86
2022/07/10 05:39:33;;;;;;;11.43;2.50;;;14.70;99.90;;;;;;5029514;28;20099;-90
2022/07/10 05:41:59;;;;;;;11.48;2.75;;;14.90;99.90;;;;;;5027722;28;20041;-87
2022/07/10 05:44:25;;;;;;;8.50;2.28;;;14.10;99.90;;;;;;5029158;28;20040;-86
2022/07/10 05:46:50;;;;;;;11.50;2.50;;;14.50;99.90;;;;;;5028659;28;20042;-86
2022/07/10 05:49:16;;;;;;;8.48;2.15;;;15.10;99.90;;;;;;5014447;28;20045;-88
2022/07/10 05:51:42;;;;;;;9.27;2.40;;;14.80;99.90;;;;;;5009666;28;20049;-90
2022/07/10 05:54:08;;;;;;;10.98;2.60;;;;;;;;;;5028368;28;20398;-89
2022/07/10 05:56:34;;;;;;;11.90;2.70;;;;;;;;;;5030389;28;20045;-86
2022/07/10 05:59:00;;;;;;;11.68;3.05;;;14.80;99.90;;;;;;5026186;28;20055;-87
2022/07/10 06:01:26;;;;;;;8.75;2.53;;;14.90;99.90;;;;;;5028846;28;20037;-86
2022/07/10 06:03:52;;;;;;;9.80;2.83;;;15.00;99.90;;;;;;5029125;28;20294;-87
2022/07/10 06:06:17;;;;;;;9.68;2.92;;;14.80;99.90;;;;;;5027289;28;20041;-87
2022/07/10 06:08:44;;;;;;;10.60;2.80;;;;;;;;;;5029001;28;20048;-87
2022/07/10 06:11:10;;;;;;;13.18;3.45;;;;;;;;;;5028537;28;20111;-89
2022/07/10 06:13:36;;;;;;;9.90;2.88;;;15.00;99.90;;;;;;5012135;28;20309;-87
2022/07/10 06:16:04;;;;;;;10.35;2.92;;;14.70;99.90;;;;;;5027854;28;20049;-88
2022/07/10 06:18:30;;;;;;;11.20;3.00;;;15.20;99.90;;;;;;5027317;28;20052;-88
2022/07/10 06:20:56;;;;;;;12.25;3.42;;;15.20;99.90;;;;;;5028153;28;20073;-91
2022/07/10 06:23:22;;;;;;;10.25;2.83;;;15.50;99.90;;;;;;5028581;28;20146;-88
2022/07/10 06:25:49;;;;;;;9.95;3.00;;;15.30;99.90;;;;;;5027855;28;20037;-89
2022/07/10 06:28:15;;;;;;;11.43;2.85;;;15.40;99.90;;;;;;5012079;28;20132;-86
2022/07/10 06:30:41;;;;;;;9.57;2.78;;;15.20;99.90;;;;;;5028038;28;20422;-88
2022/07/10 06:33:06;;;;;;;9.90;2.65;;;15.40;99.90;;;;;;5035078;28;20108;-88
2022/07/10 06:35:32;;;;;;;11.38;3.03;;;15.40;99.90;;;;;;5014646;28;20109;-89
2022/07/10 06:37:57;;;;;;;10.35;2.67;;;15.60;99.90;;;;;;5025962;28;20045;-88
2022/07/10 06:40:23;;;;;;;11.48;2.88;;;15.50;99.90;;;;;;5028372;28;20037;-86
2022/07/10 06:42:49;;;;;;;10.98;3.35;;;15.40;99.90;;;;;;5032745;28;20127;-87
2022/07/10 06:45:15;;;;;;;12.02;3.00;;;;;;;;;;5050253;28;20120;-88
2022/07/10 06:47:56;;;;;;;9.13;2.30;;;15.00;99.90;;;;;;5009684;28;20038;-89
2022/07/10 06:50:22;;;;;;;9.88;2.60;;;15.50;99.90;;;;;;5026641;28;20425;-89
2022/07/10 06:52:54;;;;;;;9.75;2.33;;;15.50;99.90;;;;;;5027994;28;20050;-90
2022/07/10 06:55:20;;;;;;;9.05;2.50;;;;;;;;;;5036080;28;20117;-90
2022/07/10 06:57:46;;;;;;;8.35;2.40;;;;;;;;;;5004860;28;20041;-90
2022/07/10 07:00:12;;;;;;;10.60;2.63;;;15.60;99.90;;;;;;5025452;28;20060;-88
2022/07/10 07:02:38;;;;;;;7.78;2.00;;;15.70;99.90;;;;;;5008087;28;20525;-88
2022/07/10 07:05:05;;;;;;;10.43;2.95;;;16.30;99.90;;;;;;5023339;28;20037;-94
2022/07/10 07:07:31;;;;;;;9.27;2.30;;;15.90;99.90;;;;;;5027471;28;20033;-93
2022/07/10 07:09:57;;;;;;;9.80;2.20;;;15.70;99.90;;;;;;5024146;28;20052;-91
2022/07/10 07:12:22;;;;;;;9.02;2.42;;;15.80;99.90;;;;;;5022331;28;20060;-90
2022/07/10 07:14:49;;;;;;;8.10;1.60;;;16.00;99.90;;;;;;5026564;28;20038;-92
2022/07/10 07:17:21;;;;;;;7.15;1.90;;;15.90;99.90;;;;;;4998909;28;20095;-90
2022/07/10 07:25:16;;;;;;;6.13;1.60;;;15.90;99.90;;;;;;5029582;28;20382;-90
2022/07/10 07:27:42;;;;;;;6.57;1.45;;;16.40;99.90;;;;;;5029183;28;20044;-90
2022/07/10 07:30:16;;;;;;;7.63;1.95;;;16.00;99.90;;;;;;5027859;28;20038;-91
2022/07/10 07:32:42;;;;;;;8.65;1.70;;;16.00;99.90;;;;;;5027669;28;20045;-91
2022/07/10 07:35:09;;;;;;;8.93;1.67;;;16.00;99.90;;;;;;5010689;28;20405;-88
2022/07/10 07:37:39;;;;;;;7.25;1.67;;;16.10;99.90;;;;;;5012775;28;20038;-91
2022/07/10 07:40:07;;;;;;;7.18;1.80;;;16.00;99.90;;;;;;5021764;28;20449;-87
2022/07/10 07:42:33;;;;;;;5.80;1.50;;;16.10;99.90;;;;;;5008718;28;20045;-88
2022/07/10 07:44:58;;;;;;;7.72;1.65;;;16.20;99.90;;;;;;5017194;28;20034;-86
2022/07/10 07:47:24;;;;;;;6.72;1.67;;;16.20;99.90;;;;;;5030634;28;20129;-90
2022/07/10 07:49:50;;;;;;;5.63;1.50;;;16.10;99.90;;;;;;5023061;28;20045;-89
2022/07/10 07:52:15;;;;;;;5.50;1.33;;;16.20;99.90;;;;;;5009782;28;20500;-87
2022/07/10 07:54:41;;;;;;;6.07;1.30;;;16.20;99.90;;;;;;5014948;28;20043;-87
2022/07/10 07:57:06;;;;;;;6.70;1.40;;;16.30;99.90;;;;;;5026863;28;20045;-88
2022/07/10 07:59:32;;;;;;;6.55;1.60;;;16.30;99.90;;;;;;5026655;28;20085;-91
2022/07/10 08:01:58;;;;;;;7.00;1.60;;;16.40;99.90;;;;;;5022419;28;20081;-90
2022/07/10 08:04:24;;;;;;;4.53;1.52;;;16.40;99.90;;;;;;5028062;28;20084;-90
2022/07/10 08:06:52;;;;;;;5.53;1.35;;;16.50;99.90;;;;;;5026912;28;20057;-92
2022/07/10 08:09:18;;;;;;;5.28;1.90;;;16.50;99.90;;;;;;5038313;28;20140;-89
2022/07/10 08:11:44;;;;;;;5.82;1.40;;;16.50;99.90;;;;;;5010238;28;20057;-93
2022/07/10 08:14:10;;;;;;;4.63;1.42;;;16.50;99.90;;;;;;5026137;28;20446;-87
2022/07/10 08:16:35;;;;;;;6.18;1.80;;;16.40;99.90;;;;;;5026699;28;20132;-89
2022/07/10 08:19:01;;;;;;;6.00;1.40;;;16.20;99.90;;;;;;5036531;28;20041;-87
2022/07/10 08:21:26;;;;;;;4.25;1.50;;;16.30;99.90;;;;;;5033900;28;20054;-92
2022/07/10 08:23:53;;;;;;;5.47;1.60;;;;;;;;;;5031190;28;20042;-89
2022/07/10 08:26:19;;;;;;;5.63;1.40;;;16.50;99.90;;;;;;5034575;28;20049;-93
2022/07/10 08:28:45;;;;;;;7.93;1.67;;;16.60;99.90;;;;;;5032650;28;20132;-91
2022/07/10 08:31:10;;;;;;;5.00;1.33;;;16.50;99.90;;;;;;5029277;28;20041;-89
2022/07/10 08:33:36;;;;;;;6.82;1.75;;;16.60;99.90;;;;;;5016109;28;20418;-90
2022/07/10 08:36:02;;;;;;;6.95;1.52;;;16.60;99.90;;;;;;4998836;28;20117;-89
2022/07/10 08:38:28;;;;;;;5.32;1.25;;;;;;;;;;5047304;28;20054;-89
2022/07/10 08:40:57;;;;;;;5.97;1.45;;;16.50;99.90;;;;;;5039470;28;20048;-88
2022/07/10 08:43:24;;;;;;;5.15;1.20;;;16.50;99.90;;;;;;5025948;28;20563;-87
2022/07/10 08:45:51;;;;;;;5.47;1.40;;;16.60;99.90;;;;;;5016620;28;20096;-89
2022/07/10 08:48:23;;;;;;;4.18;1.17;;;16.60;99.90;;;;;;5030099;28;20045;-92
2022/07/10 08:50:56;;;;;;;4.82;1.25;;;16.60;99.90;;;;;;5019405;28;20038;-88
2022/07/10 08:53:30;;;;;;;6.63;1.50;;;16.20;99.90;;;;;;5026632;28;20045;-87
2022/07/10 08:55:56;;;;;;;4.55;1.30;;;;;;;;;;5029775;28;20057;-89
2022/07/10 08:58:23;;;;;;;6.25;1.52;;;16.80;99.90;;;;;;5029612;28;20057;-90
2022/07/10 09:00:49;;;;;;;5.68;1.40;;;;;;;;;;5029175;28;20438;-91
2022/07/10 09:03:15;;;;;;;7.93;1.48;;;;;;;;;;5020447;28;20049;-90
2022/07/10 09:05:41;;;;;;;5.05;1.35;;;;;;;;;;5037107;28;20072;-94
2022/07/10 09:08:28;;;;;;;4.80;1.40;;;17.50;99.90;;;;;;5049343;28;20154;-89
2022/07/10 09:11:17;;;;;;;5.38;1.40;;;16.50;99.90;;;;;;5014260;28;20088;-89
2022/07/10 09:13:54;;;;;;;5.55;1.30;;;16.30;99.90;;;;;;5031072;28;20042;-90
2022/07/10 09:16:26;;;;;;;4.00;1.20;;;16.80;99.90;;;;;;5005353;28;20088;-91
2022/07/10 09:18:52;;;;;;;6.13;1.75;;;;;;;;;;5027061;28;20102;-91
2022/07/10 09:21:18;;;;;;;5.80;1.73;;;;;;;;;;5040809;28;20068;-89
2022/07/10 09:23:44;;;;;;;4.85;1.38;;;;;;;;;;5030438;28;20420;-92
2022/07/10 09:26:10;;;;;;;4.72;1.30;;;;;;;;;;5034466;28;20095;-90
2022/07/10 09:28:36;;;;;;;6.45;1.90;;;16.90;99.90;;;;;;5027880;28;20090;-93
2022/07/10 09:31:01;;;;;;;4.72;1.35;;;17.40;99.90;;;;;;5027865;28;20045;-92
2022/07/10 09:33:31;;;;;;;3.90;1.50;;;16.50;99.90;;;;;;5039920;28;20734;-90
2022/07/10 09:36:12;;;;;;;5.90;1.73;;;17.10;99.90;;;;;;5021687;28;20045;-90
2022/07/10 09:38:43;;;;;;;4.55;1.55;;;16.70;99.90;;;;;;5029793;28;20053;-92
2022/07/10 09:41:21;;;;;;;4.68;1.45;;;16.70;99.90;;;;;;5044579;28;20053;-90
2022/07/10 09:43:49;;;;;;;5.07;1.52;;;16.60;99.90;;;;;;5013026;28;20073;-89
2022/07/10 09:46:16;;;;;;;6.57;1.88;;;16.50;99.90;;;;;;5015377;28;20149;-90
2022/07/10 09:48:42;;;;;;;5.95;1.55;;;;;;;;;;5026888;28;20041;-91
2022/07/10 09:51:10;;;;;;;6.75;1.73;;;16.50;99.90;;;;;;5018938;28;20045;-90
2022/07/10 09:53:44;;;;;;;7.68;1.80;;;17.60;99.90;;;;;;5031156;28;20120;-90
2022/07/10 09:56:13;;;;;;;5.38;1.90;;;16.60;99.90;;;;;;5013209;28;20045;-90
2022/07/10 09:58:39;;;;;;;6.55;1.77;;;16.60;99.90;;;;;;5010080;28;20054;-92
2022/07/10 10:01:07;;;;;;;7.15;2.13;;;16.80;99.90;;;;;;5020973;28;20068;-92
2022/07/10 10:03:37;;;;;;;7.53;1.98;;;16.80;99.90;;;;;;5042409;28;20119;-93
2022/07/10 10:06:13;;;;;;;8.30;2.42;;;16.90;99.90;;;;;;5048617;28;20045;-92
2022/07/10 10:08:56;;;;;;;6.25;1.80;;;17.30;99.90;;;;;;5030118;28;20054;-90
2022/07/10 10:11:25;;;;;;;5.53;2.00;;;17.00;99.90;;;;;;5010474;28;20060;-91
2022/07/10 10:13:52;;;;;;;6.78;1.88;;;16.60;99.90;;;;;;5010289;28;20064;-90
2022/07/10 10:16:20;;;;;;;7.10;2.03;;;17.00;99.90;;;;;;5016929;28;20163;-92
2022/07/10 10:21:32;;;;;;;4.50;1.60;;;16.70;99.90;;;;;;5048812;28;20084;-89
2022/07/10 10:24:00;;;;;;;6.88;2.40;;;16.50;99.90;;;;;;5027310;28;20425;-89
2022/07/10 10:26:26;;;;;;;7.80;2.17;;;16.20;99.90;;;;;;5030054;28;20111;-89
2022/07/10 10:28:54;;;;;;;5.40;2.10;;;16.40;99.90;;;;;;5023413;28;20036;-90
2022/07/10 10:31:21;;;;;;;5.95;2.10;;;16.40;99.90;;;;;;5048777;28;20049;-90
2022/07/10 10:33:48;;;;;;;8.13;2.40;;;16.80;99.90;;;;;;5038736;28;20057;-90
2022/07/10 10:36:34;;;;;;;6.55;2.20;;;16.90;99.90;;;;;;5025887;28;20139;-87
2022/07/10 10:39:12;;;;;;;7.43;2.55;;;16.90;99.90;;;;;;5032459;28;20049;-87
2022/07/10 10:41:39;;;;;;;6.53;2.20;;;16.90;99.90;;;;;;5013488;28;20069;-90
2022/07/10 10:44:08;;;;;;;7.20;2.40;;;16.60;99.90;;;;;;5022106;28;20068;-86
2022/07/10 10:46:54;;;;;;;8.88;2.25;;;16.80;99.90;;;;;;5037952;28;20050;-87
2022/07/10 10:49:21;;;;;;;6.15;1.92;;;16.10;99.90;;;;;;5017766;28;20551;-88
2022/07/10 10:52:04;;;;;;;7.82;2.15;;;;;;;;;;5011034;28;20049;-88
2022/07/10 10:54:50;;;;;;;7.72;2.50;;;;;;;;;;5028444;28;20041;-87
2022/07/10 10:57:17;;;;;;;6.63;2.40;;;17.30;99.90;;;;;;5014512;28;20052;-87
2022/07/10 10:59:55;;;;;;;7.55;2.38;;;17.00;99.90;;;;;;5027924;28;20045;-88
2022/07/10 11:02:32;;;;;;;6.82;2.45;;;16.80;99.90;;;;;;5029809;28;20040;-91
2022/07/10 11:05:17;;;;;;;6.88;2.30;;;17.10;99.90;;;;;;5036431;28;20045;-88
2022/07/10 11:07:53;;;;;;;9.02;2.40;;;17.60;99.90;;;;;;5029269;28;20528;-89
2022/07/10 11:10:32;;;;;;;7.53;2.40;;;17.60;99.90;;;;;;5017757;28;20085;-89
2022/07/10 11:12:59;;;;;;;7.78;2.30;;;;;;;;;;5007692;28;20131;-88
2022/07/10 11:15:25;;;;;;;8.90;2.47;;;;;;;;;;5009246;28;20053;-86
2022/07/10 11:17:50;;;;;;;7.50;2.70;;;17.80;99.90;;;;;;5030833;28;20143;-87
2022/07/10 11:20:17;;;;;;;6.93;2.55;;;18.20;99.90;;;;;;5026967;28;20088;-86
2022/07/10 11:23:13;;;;;;;9.38;2.95;;;18.20;99.90;;;;;;5021437;28;20041;-87
2022/07/10 11:26:00;;;;;;;5.80;2.15;;;18.20;99.90;;;;;;5029176;28;20050;-87
2022/07/10 11:28:46;;;;;;;6.22;2.15;;;18.00;99.90;;;;;;5022453;28;20048;-89
2022/07/10 11:31:12;;;;;;;8.25;2.17;;;;;;;;;;5026690;28;20091;-86
2022/07/10 11:33:48;;;;;;;7.93;2.15;;;17.40;99.90;;;;;;5026947;28;20057;-85
2022/07/10 11:36:18;;;;;;;6.13;2.00;;;17.40;99.90;;;;;;5023640;28;20029;-86
2022/07/10 11:38:45;;;;;;;6.70;2.35;;;17.70;99.90;;;;;;5021592;28;20042;-86
2022/07/10 11:41:19;;;;;;;6.50;1.75;;;18.20;99.90;;;;;;5019934;28;20106;-87
2022/07/10 11:43:48;;;;;;;6.05;1.85;;;18.00;99.90;;;;;;5026543;28;20507;-87
2022/07/10 11:46:14;;;;;;;8.05;2.20;;;;;;;;;;5046750;28;20041;-86
2022/07/10 11:48:40;;;;;;;6.30;2.42;;;;;;;;;;5027555;28;20095;-87
2022/07/10 11:51:30;;;;;;;6.60;2.08;;;18.90;99.90;;;;;;5014418;28;20140;-88
2022/07/10 11:54:05;;;;;;;8.32;2.50;;;18.50;99.90;;;;;;5026005;28;20413;-87
2022/07/10 11:56:32;;;;;;;5.68;1.85;;;18.30;99.90;;;;;;5020489;28;20041;-87
2022/07/10 11:59:05;;;;;;;6.35;2.00;;;18.60;99.90;;;;;;5030811;28;20106;-88
2022/07/10 12:01:33;;;;;;;7.10;1.83;;;17.90;99.90;;;;;;5043462;28;20397;-83
2022/07/10 12:03:59;;;;;;;7.28;2.08;;;;;;;;;;5030137;28;20037;-88
2022/07/10 12:06:26;;;;;;;5.88;2.28;;;17.80;99.90;;;;;;5031818;28;20044;-86
2022/07/10 12:08:52;;;;;;;6.68;2.42;;;;;;;;;;5024839;28;20164;-86
2022/07/10 12:11:20;;;;;;;7.72;2.30;;;18.00;99.90;;;;;;5017867;28;20108;-89
2022/07/10 12:13:47;;;;;;;5.35;2.03;;;18.00;99.90;;;;;;5029431;28;20382;-88
2022/07/10 12:16:14;;;;;;;7.13;2.00;;;17.80;99.90;;;;;;5032205;28;20043;-85
2022/07/10 12:18:41;;;;;;;6.20;2.40;;;17.80;99.90;;;;;;4998085;28;20107;-88
2022/07/10 12:21:09;;;;;;;5.43;2.13;;;17.70;99.90;;;;;;5028877;28;20131;-85
2022/07/10 12:23:38;;;;;;;6.03;2.40;;;17.40;99.90;;;;;;5031628;28;20049;-86
2022/07/10 12:26:04;;;;;;;7.90;2.15;;;;;;;;;;5045891;28;20396;-84
2022/07/10 12:28:30;;;;;;;7.50;2.47;;;17.70;99.90;;;;;;5032728;28;20430;-84
2022/07/10 12:30:56;;;;;;;6.05;2.30;;;;;;;;;;5045814;28;20081;-89
2022/07/10 12:33:23;;;;;;;8.75;2.42;;;17.50;99.90;;;;;;5031149;28;20425;-90
2022/07/10 12:35:56;;;;;;;8.50;2.63;;;17.70;99.90;;;;;;5013614;28;20038;-88
2022/07/10 12:38:33;;;;;;;10.85;2.50;;;17.40;99.90;;;;;;5012089;28;20113;-90
2022/07/10 12:41:12;;;;;;;8.68;2.20;;;18.00;99.90;;;;;;5010719;28;20139;-88
2022/07/10 12:43:38;;;;;;;6.47;2.35;;;17.30;99.90;;;;;;5012519;28;20054;-87
2022/07/10 12:46:11;;;;;;;8.98;2.63;;;;;;;;;;5012120;28;20045;-89
2022/07/10 12:48:40;;;;;;;6.53;2.47;;;;;;;;;;5016690;28;20062;-88
2022/07/10 12:51:26;;;;;;;9.07;2.90;;;;;;;;;;5021969;28;20041;-89
2022/07/10 12:53:53;;;;;;;8.48;2.85;;;;;;;;;;5010995;28;20045;-89
2022/07/10 12:56:34;;;;;;;8.68;2.75;;;17.30;99.90;;;;;;5012518;28;20050;-88
2022/07/10 12:59:02;;;;;;;8.07;2.70;;;17.60;99.90;;;;;;5011971;28;20081;-92
2022/07/10 13:01:39;;;;;;;8.70;2.97;;;17.70;99.90;;;;;;5026248;28;20418;-90
2022/07/10 13:04:05;;;;;;;7.65;3.13;;;;;;;;;;5011916;28;20493;-90
2022/07/10 13:06:33;;;;;;;7.82;2.70;;;17.70;99.90;;;;;;5031468;28;20049;-90
2022/07/10 13:08:59;;;;;;;8.63;2.40;;;17.70;99.90;;;;;;5012778;28;20042;-91